Time;durP1;ratioP1;P1;durP2;ratioP2;P2;SDS_P1;SDS_P2;PMS_P1;PMS_P2;Temp;Humidity;BMP_temperature;BMP_pressure;BME280_temperature;BME280_humidity;BME280_pressure;Samples;Min_cycle;Max_cycle;Signal;HPM_P1;HPM_P2
2022/11/02 00:02:23;;;;;;;5.72;3.25;;;;;;;13.46;56.95;63391.19;5005514;28;20231;-78
2022/11/02 00:04:50;;;;;;;12.38;3.67;;;;;;;13.54;56.74;63397.47;4991828;28;20238;-78
2022/11/02 00:07:17;;;;;;;7.35;3.78;;;;;;;13.41;57.16;63386.53;5005048;28;20215;-78
2022/11/02 00:09:44;;;;;;;6.47;3.08;;;;;;;13.35;57.77;63374.66;5004704;28;20206;-77
2022/11/02 00:12:11;;;;;;;3.90;2.70;;;;;;;13.28;57.81;63369.97;5003746;28;20223;-77
2022/11/02 00:14:39;;;;;;;6.85;3.22;;;;;;;13.25;57.94;63361.72;5003944;28;20273;-76
2022/11/02 00:17:07;;;;;;;6.22;2.97;;;;;;;13.24;58.02;63366.31;5005579;28;20258;-77
2022/11/02 00:19:34;;;;;;;6.32;3.08;;;;;;;13.15;57.71;63353.91;5006242;28;20199;-78
2022/11/02 00:22:02;;;;;;;8.02;3.05;;;;;;;13.03;58.40;63341.97;4993274;28;20246;-78
2022/11/02 00:24:31;;;;;;;6.28;2.95;;;;;;;12.97;58.69;63335.22;5003980;28;20237;-77
2022/11/02 00:26:59;;;;;;;10.65;2.60;;;;;;;12.92;59.05;63335.16;5023016;28;20218;-78
2022/11/02 00:29:26;;;;;;;8.30;3.10;;;;;;;12.84;59.36;63324.31;5018469;28;20192;-78
2022/11/02 00:31:54;;;;;;;8.73;3.45;;;;;;;12.79;59.49;63317.59;4995051;28;20222;-77
2022/11/02 00:34:24;;;;;;;8.60;3.10;;;;;;;12.82;59.84;63317.63;5006496;28;20199;-76
2022/11/02 00:36:51;;;;;;;5.00;3.45;;;;;;;12.86;59.83;63319.22;5007315;28;20226;-77
2022/11/02 00:39:18;;;;;;;13.00;3.15;;;;;;;12.93;59.63;63331.59;5001062;28;20268;-78
2022/11/02 00:41:45;;;;;;;4.90;3.33;;;;;;;12.90;59.86;63331.03;4997268;28;20242;-76
2022/11/02 00:44:12;;;;;;;6.10;3.50;;;;;;;12.88;61.28;63325.88;5005614;28;20205;-78
2022/11/02 00:46:39;;;;;;;6.07;3.15;;;;;;;12.83;62.13;63321.22;5004654;28;20215;-79
2022/11/02 00:49:07;;;;;;;10.02;4.20;;;;;;;12.80;63.82;63318.63;5014900;28;20239;-77
2022/11/02 00:51:34;;;;;;;10.88;3.60;;;;;;;12.75;64.11;63318.53;5006343;28;20270;-77
2022/11/02 00:54:01;;;;;;;5.65;3.58;;;;;;;12.65;64.36;63302.53;5004269;28;20200;-76
2022/11/02 00:56:28;;;;;;;10.48;3.83;;;;;;;12.56;65.38;63298.84;5004285;28;20219;-76
2022/11/02 00:58:55;;;;;;;8.40;3.95;;;;;;;12.52;65.62;63289.06;5001276;28;20210;-77
2022/11/02 01:01:22;;;;;;;4.75;3.85;;;;;;;12.43;66.11;63277.72;4988966;28;20236;-77
2022/11/02 01:03:49;;;;;;;6.97;3.88;;;;;;;12.43;65.33;63279.75;4989999;28;20207;-77
2022/11/02 01:06:18;;;;;;;9.23;3.70;;;;;;;12.52;64.33;63292.16;4992231;28;20251;-78
2022/11/02 01:08:45;;;;;;;8.95;4.05;;;;;;;12.48;63.99;63287.47;5006999;28;20207;-77
2022/11/02 01:11:13;;;;;;;8.40;2.70;;;;;;;12.50;63.15;63292.09;5008415;28;20298;-77
2022/11/02 01:13:40;;;;;;;8.18;3.30;;;;;;;12.46;63.40;63285.94;5008136;28;20234;-77
2022/11/02 01:16:08;;;;;;;7.13;2.85;;;;;;;12.51;62.47;63288.56;4999050;28;20223;-77
2022/11/02 01:18:35;;;;;;;8.52;3.35;;;;;;;12.47;62.75;63283.91;5006045;28;20551;-79
2022/11/02 01:21:03;;;;;;;7.85;3.40;;;;;;;12.52;62.44;63289.06;5009097;28;20250;-78
2022/11/02 01:23:33;;;;;;;9.27;2.90;;;;;;;12.46;62.97;63283.38;5008844;28;20519;-76
2022/11/02 01:26:03;;;;;;;4.63;3.05;;;;;;;12.45;62.82;63289.47;5005275;28;20598;-78
2022/11/02 01:28:31;;;;;;;8.75;2.47;;;;;;;12.44;62.51;63280.78;5009473;28;20426;-78
2022/11/02 01:30:58;;;;;;;6.00;2.65;;;;;;;12.42;62.56;63279.25;5008581;28;20247;-78
2022/11/02 01:33:25;;;;;;;8.27;3.60;;;;;;;12.40;63.92;63279.72;5005889;28;20262;-79
2022/11/02 01:35:53;;;;;;;12.70;3.47;;;;;;;12.38;64.61;63282.75;5003291;28;20258;-77
2022/11/02 01:38:20;;;;;;;5.75;3.70;;;;;;;12.29;65.01;63268.31;5007956;28;20199;-77
2022/11/02 01:40:48;;;;;;;12.98;4.00;;;;;;;12.29;65.27;63263.19;5007672;28;20227;-78
2022/11/02 01:43:20;;;;;;;11.10;4.00;;;;;;;12.31;64.88;63270.38;5007397;28;20456;-78
2022/11/02 01:45:48;;;;;;;9.15;4.55;;;;;;;12.27;65.04;63266.22;5007468;28;20223;-77
2022/11/02 01:48:15;;;;;;;10.30;3.85;;;;;;;12.25;65.04;63264.16;5009819;28;20200;-76
2022/11/02 01:50:43;;;;;;;8.38;2.95;;;;;;;12.20;65.07;63253.34;5006749;28;20301;-78
2022/11/02 01:53:10;;;;;;;11.75;3.90;;;;;;;12.18;65.58;63253.84;5001265;28;20211;-77
2022/11/02 01:55:37;;;;;;;5.85;3.38;;;;;;;12.23;66.80;63259.53;5004334;28;20230;-79
2022/11/02 01:58:10;;;;;;;7.40;3.15;;;;;;;12.23;66.99;63259.53;5007614;28;20203;-77
2022/11/02 02:00:37;;;;;;;14.55;4.25;;;;;;;12.31;66.74;63274.97;5002632;28;20265;-76
2022/11/02 02:03:07;;;;;;;11.40;4.25;;;;;;;12.24;67.79;63260.03;5000062;28;20237;-76
2022/11/02 02:05:39;;;;;;;4.80;3.65;;;;;;;12.16;68.33;63254.84;5006560;28;20257;-77
2022/11/02 02:08:07;;;;;;;9.20;4.45;;;;;;;12.19;69.40;63263.03;5006637;28;20538;-77
2022/11/02 02:10:35;;;;;;;12.90;5.07;;;;;;;12.26;69.74;63262.13;4997526;28;20394;-77
2022/11/02 02:13:06;;;;;;;13.88;4.75;;;;;;;12.21;70.13;63262.03;5007317;28;20234;-77
2022/11/02 02:15:41;;;;;;;5.10;4.22;;;;;;;12.23;70.36;63262.09;5007581;28;20226;-77
2022/11/02 02:18:16;;;;;;;10.38;3.78;;;;;;;12.26;70.19;63267.75;5008838;28;20199;-77
2022/11/02 02:21:05;;;;;;;7.88;3.83;;;;;;;12.26;70.15;63265.19;4995124;28;20235;-76
2022/11/02 02:23:45;;;;;;;12.15;3.55;;;;;;;12.28;70.33;63269.31;5006844;28;20200;-79
2022/11/02 02:26:37;;;;;;;11.63;3.55;;;;;;;12.29;70.17;63265.22;5006472;28;20315;-77
2022/11/02 02:29:14;;;;;;;12.27;4.95;;;;;;;12.25;70.34;63268.75;4993924;28;20491;-77
2022/11/02 02:31:49;;;;;;;6.82;4.20;;;;;;;12.19;70.36;63255.38;5007069;28;20351;-77
2022/11/02 02:34:19;;;;;;;8.02;3.65;;;;;;;12.15;70.20;63251.22;5000561;28;20503;-76
2022/11/02 02:36:50;;;;;;;9.63;3.88;;;;;;;12.13;69.42;63251.72;4987668;28;20404;-76
2022/11/02 02:39:24;;;;;;;9.98;3.78;;;;;;;12.08;69.36;63246.53;4998794;28;20203;-76
2022/11/02 02:41:59;;;;;;;8.80;3.78;;;;;;;12.14;68.86;63250.22;5006855;28;20551;-77
2022/11/02 02:44:32;;;;;;;5.68;3.53;;;;;;;12.08;68.73;63249.09;4992043;28;20211;-77
2022/11/02 02:47:04;;;;;;;8.40;4.07;;;;;;;12.02;69.08;63242.88;4988991;28;20220;-76
2022/11/02 02:49:37;;;;;;;8.98;3.97;;;;;;;12.08;68.79;63246.53;5008209;28;20219;-78
2022/11/02 02:52:06;;;;;;;8.23;3.80;;;;;;;12.14;67.89;63252.75;5002710;28;20220;-77
2022/11/02 02:54:38;;;;;;;7.63;3.97;;;;;;;12.11;67.38;63252.22;4986978;28;20207;-77
2022/11/02 02:57:09;;;;;;;13.85;3.70;;;;;;;12.04;67.61;63239.31;4996747;28;20231;-77
2022/11/02 02:59:41;;;;;;;14.35;3.65;;;;;;;12.04;67.95;63244.94;5005813;28;20303;-77
2022/11/02 03:02:16;;;;;;;14.98;3.72;;;;;;;11.98;68.05;63233.09;4995104;28;20298;-77
2022/11/02 03:04:43;;;;;;;7.68;3.25;;;;;;;11.97;67.79;63232.59;4986073;28;20191;-77
2022/11/02 03:07:14;;;;;;;8.80;2.90;;;;;;;11.99;66.77;63236.69;5004592;28;20554;-77
2022/11/02 03:09:44;;;;;;;4.43;2.70;;;;;;;12.02;66.10;63240.31;5006405;28;20192;-78
2022/11/02 03:12:21;;;;;;;5.40;3.05;;;;;;;11.97;66.10;63234.63;5005681;28;20234;-77
2022/11/02 03:15:03;;;;;;;8.45;3.40;;;;;;;11.97;66.64;63234.63;5004026;28;20203;-76
2022/11/02 03:17:37;;;;;;;9.35;4.30;;;;;;;12.00;66.76;63235.69;5006757;28;20205;-77
2022/11/02 03:20:14;;;;;;;10.02;3.58;;;;;;;11.95;67.07;63230.00;4994080;28;20200;-76
2022/11/02 03:22:49;;;;;;;7.10;3.58;;;;;;;12.06;66.02;63244.47;4986889;28;20243;-78
2022/11/02 03:25:19;;;;;;;6.05;3.13;;;;;;;12.03;65.45;63243.91;4993027;28;20221;-76
2022/11/02 03:27:53;;;;;;;13.63;3.47;;;;;;;11.97;65.91;63237.69;5025457;28;20198;-77
2022/11/02 03:30:23;;;;;;;9.27;5.03;;;;;;;11.94;67.15;63228.97;4985917;28;20274;-78
2022/11/02 03:33:00;;;;;;;12.40;4.75;;;;;;;11.92;68.06;63232.00;4993953;28;20463;-79
2022/11/02 03:35:34;;;;;;;8.55;3.95;;;;;;;11.98;68.51;63236.16;5005115;28;20269;-76
2022/11/02 03:38:05;;;;;;;9.68;3.75;;;;;;;11.90;68.86;63225.34;5003817;28;20207;-75
2022/11/02 03:40:35;;;;;;;4.70;3.75;;;;;;;11.92;68.62;63232.00;5005920;28;20458;-77
2022/11/02 03:43:05;;;;;;;11.68;3.40;;;;;;;11.93;68.40;63230.47;5005434;28;20240;-77
2022/11/02 03:45:38;;;;;;;12.32;3.97;;;;;;;11.89;68.30;63226.84;5006034;28;20227;-76
2022/11/02 03:48:08;;;;;;;9.88;4.07;;;;;;;11.79;68.81;63208.31;4986182;28;20226;-77
2022/11/02 03:50:38;;;;;;;6.30;3.42;;;;;;;11.77;67.94;63211.34;4991125;28;20535;-77
2022/11/02 03:53:11;;;;;;;8.18;4.63;;;;;;;11.75;66.83;63211.81;5006474;28;20199;-76
2022/11/02 03:55:43;;;;;;;5.07;3.35;;;;;;;11.70;67.04;63204.59;4999169;28;20219;-78
2022/11/02 03:58:11;;;;;;;10.07;4.10;;;;;;;11.64;67.40;63206.03;4986180;28;20199;-76
2022/11/02 04:00:47;;;;;;;8.73;3.38;;;;;;;11.59;67.41;63198.81;4985945;28;20251;-78
2022/11/02 04:03:14;;;;;;;6.32;3.13;;;;;;;11.60;67.67;63194.22;4985215;28;20439;-77
2022/11/02 04:05:41;;;;;;;6.63;2.83;;;;;;;11.63;67.55;63197.34;4996409;28;20226;-77
2022/11/02 04:08:23;;;;;;;5.22;3.20;;;;;;;11.55;67.37;63189.56;5004964;28;20238;-76
2022/11/02 04:16:19;;;;;;;9.05;3.42;;;;;;;11.46;68.57;63179.72;4963248;28;20295;-78
2022/11/02 04:21:32;;;;;;;9.38;3.88;;;;;;;11.38;68.85;63174.50;4986332;28;20264;-77
2022/11/02 04:26:44;;;;;;;8.15;4.00;;;;;;;11.31;69.46;63169.81;5010121;28;20230;-77
2022/11/02 04:29:11;;;;;;;6.85;3.33;;;;;;;11.31;69.77;63164.72;4995238;28;20455;-77
2022/11/02 04:31:42;;;;;;;8.80;3.92;;;;;;;11.31;69.61;63164.72;4985165;28;20212;-77
2022/11/02 04:34:08;;;;;;;10.43;3.97;;;;;;;11.24;69.94;63160.00;5006595;28;20212;-76
2022/11/02 04:36:34;;;;;;;5.15;3.20;;;;;;;11.29;69.37;63162.63;5008256;28;20222;-77
2022/11/02 04:39:00;;;;;;;7.22;2.70;;;;;;;11.30;66.87;63163.66;4991481;28;20520;-77
2022/11/02 04:41:42;;;;;;;8.30;2.70;;;;;;;11.26;67.06;63159.00;4994923;28;20219;-77
2022/11/02 04:44:10;;;;;;;10.48;3.75;;;;;;;11.15;69.00;63148.13;5009572;28;20200;-77
2022/11/02 04:46:39;;;;;;;7.85;3.97;;;;;;;11.11;69.90;63146.03;5007456;28;20219;-76
2022/11/02 04:49:06;;;;;;;9.20;3.50;;;;;;;11.09;71.14;63141.94;5009423;28;20350;-77
2022/11/02 04:51:34;;;;;;;6.32;3.92;;;;;;;11.08;71.25;63145.97;5006873;28;20223;-76
2022/11/02 04:54:00;;;;;;;8.55;3.72;;;;;;;11.02;71.75;63131.63;5009013;28;20492;-77
2022/11/02 04:56:29;;;;;;;8.70;4.35;;;;;;;11.07;71.72;63146.97;5007472;28;20219;-76
2022/11/02 04:58:57;;;;;;;5.57;3.58;;;;;;;11.10;70.68;63142.44;5007524;28;20199;-78
2022/11/02 05:01:26;;;;;;;9.07;3.53;;;;;;;11.08;70.23;63140.38;5006631;28;20234;-75
2022/11/02 05:03:57;;;;;;;11.57;3.78;;;;;;;11.04;70.71;63139.31;4989253;28;20262;-76
2022/11/02 05:06:36;;;;;;;6.25;3.38;;;;;;;11.03;70.91;63140.28;4989055;28;20228;-78
2022/11/02 05:09:04;;;;;;;8.32;3.25;;;;;;;11.07;71.04;63141.88;4998409;28;20202;-76
2022/11/02 05:11:33;;;;;;;11.65;3.58;;;;;;;11.06;71.02;63141.34;4998079;28;20223;-76
2022/11/02 05:14:00;;;;;;;12.75;4.18;;;;;;;11.05;71.27;63140.34;4988789;28;20493;-76
2022/11/02 05:16:27;;;;;;;4.72;3.70;;;;;;;11.06;71.09;63138.81;4988763;28;20276;-76
2022/11/02 05:18:55;;;;;;;12.60;3.83;;;;;;;11.14;70.79;63147.09;5004621;28;20512;-76
2022/11/02 05:21:25;;;;;;;6.75;4.25;;;;;;;11.15;71.09;63143.03;5007803;28;20231;-76
2022/11/02 05:23:52;;;;;;;6.40;4.32;;;;;;;11.20;70.71;63157.91;5008000;28;20242;-77
2022/11/02 05:26:19;;;;;;;12.60;5.13;;;;;;;11.16;71.50;63154.28;5014696;28;20389;-77
2022/11/02 05:28:46;;;;;;;8.68;5.18;;;;;;;11.20;72.77;63153.31;5003452;28;20196;-76
2022/11/02 05:31:12;;;;;;;12.32;4.18;;;;;;;11.24;72.60;63159.47;4989092;28;20216;-75
2022/11/02 05:33:40;;;;;;;11.30;4.72;;;;;;;11.26;73.71;63161.56;4990268;28;20200;-79
2022/11/02 05:36:09;;;;;;;9.25;4.95;;;;;;;11.33;74.69;63166.25;4999463;28;20587;-78
2022/11/02 05:38:37;;;;;;;11.65;3.95;;;;;;;11.41;73.79;63177.09;5008550;28;20238;-78
2022/11/02 05:41:03;;;;;;;7.70;4.35;;;;;;;11.44;72.73;63177.66;5010852;28;20219;-77
2022/11/02 05:43:30;;;;;;;7.25;4.82;;;;;;;11.52;72.99;63191.56;5009115;28;20262;-77
2022/11/02 05:46:01;;;;;;;5.03;4.03;;;;;;;11.59;72.17;63191.16;4992092;28;20226;-77
2022/11/02 05:48:30;;;;;;;8.13;4.47;;;;;;;11.65;71.67;63199.41;4990093;28;20208;-79
2022/11/02 05:50:58;;;;;;;4.57;3.88;;;;;;;11.67;71.07;63204.03;4989744;28;20259;-78
2022/11/02 05:53:30;;;;;;;5.63;4.63;;;;;;;11.71;70.69;63207.69;4993876;28;20263;-77
2022/11/02 05:55:58;;;;;;;7.25;4.72;;;;;;;11.72;70.79;63201.06;5002815;28;20250;-78
2022/11/02 05:58:25;;;;;;;8.75;4.28;;;;;;;11.80;70.90;63212.44;4988132;28;20539;-79
2022/11/02 06:00:52;;;;;;;7.45;4.70;;;;;;;11.83;71.09;63217.56;4989559;28;20532;-78
2022/11/02 06:03:21;;;;;;;10.27;4.53;;;;;;;11.97;70.89;63230.03;4999914;28;20227;-77
2022/11/02 06:05:48;;;;;;;9.32;4.70;;;;;;;12.01;70.60;63239.28;5008136;28;20223;-77
2022/11/02 06:08:15;;;;;;;9.02;4.43;;;;;;;12.12;70.73;63250.16;5009395;28;20199;-78
2022/11/02 06:10:43;;;;;;;7.32;4.63;;;;;;;12.13;70.61;63248.66;4993624;28;20279;-77
2022/11/02 06:13:10;;;;;;;10.40;4.05;;;;;;;12.30;69.09;63268.81;5008009;28;20207;-78
2022/11/02 06:15:37;;;;;;;7.00;4.15;;;;;;;12.43;67.69;63285.38;5009186;28;20229;-78
2022/11/02 06:18:04;;;;;;;8.82;4.70;;;;;;;12.50;68.06;63292.09;5008269;28;20247;-79
2022/11/02 06:20:31;;;;;;;9.82;4.57;;;;;;;12.60;67.76;63300.44;5007282;28;20223;-78
2022/11/02 06:22:58;;;;;;;14.40;4.35;;;;;;;12.67;68.22;63310.25;5008495;28;20223;-77
2022/11/02 06:25:29;;;;;;;14.50;4.63;;;;;;;12.69;68.69;63307.22;5006305;28;20230;-78
2022/11/02 06:27:57;;;;;;;12.35;4.85;;;;;;;12.58;72.31;63295.81;5000607;28;20228;-77
2022/11/02 06:30:25;;;;;;;9.82;5.25;;;;;;;12.60;71.42;63303.00;5004788;28;20262;-78
2022/11/02 06:32:54;;;;;;;12.07;5.10;;;;;;;12.52;73.39;63289.59;5022325;28;20390;-77
2022/11/02 06:35:22;;;;;;;11.38;5.90;;;;;;;12.57;73.58;63294.25;5022134;28;20215;-78
2022/11/02 06:37:50;;;;;;;15.07;5.88;;;;;;;12.65;73.28;63303.06;5013245;28;20217;-78
2022/11/02 06:40:17;;;;;;;12.18;6.25;;;;;;;12.72;73.21;63314.91;5023679;28;20215;-78
2022/11/02 06:42:44;;;;;;;14.30;6.10;;;;;;;12.76;73.24;63317.03;5016968;28;20219;-77
2022/11/02 06:45:12;;;;;;;13.98;7.43;;;;;;;12.82;73.80;63322.75;5006825;28;20222;-77
2022/11/02 06:47:40;;;;;;;10.43;6.95;;;;;;;12.88;73.46;63328.97;5010500;28;20198;-79
2022/11/02 06:50:07;;;;;;;11.23;6.75;;;;;;;12.93;73.48;63325.97;5012159;28;20199;-77
2022/11/02 06:52:35;;;;;;;16.60;7.10;;;;;;;13.00;73.60;63338.84;5000364;28;20251;-78
2022/11/02 06:55:01;;;;;;;16.08;6.95;;;;;;;13.07;73.68;63345.59;4987322;28;20243;-77
2022/11/02 06:57:28;;;;;;;24.45;7.88;;;;;;;12.79;73.54;63320.16;4986704;28;20476;-77
2022/11/02 07:00:02;;;;;;;22.27;7.65;;;;;;;13.12;73.41;63353.34;4987779;28;20528;-76
2022/11/02 07:02:31;;;;;;;16.08;7.13;;;;;;;13.19;73.75;63360.63;4986673;28;20200;-77
2022/11/02 07:04:58;;;;;;;10.38;7.28;;;;;;;13.24;73.61;63363.75;4987004;28;20345;-80
2022/11/02 07:07:26;;;;;;;17.63;7.95;;;;;;;13.25;74.04;63364.28;4996294;28;20402;-77
2022/11/02 07:09:53;;;;;;;23.35;9.32;;;;;;;13.31;74.10;63371.03;5005568;28;20226;-76
2022/11/02 07:12:20;;;;;;;18.27;8.25;;;;;;;13.46;73.67;63383.53;5007789;28;20210;-78
2022/11/02 07:14:47;;;;;;;25.23;10.10;;;;;;;13.49;74.10;63389.72;5007465;28;20198;-79
2022/11/02 07:17:14;;;;;;;16.25;9.20;;;;;;;13.57;73.56;63400.56;5007150;28;20227;-77
2022/11/02 07:19:43;;;;;;;19.63;8.63;;;;;;;13.74;71.36;63415.66;5007626;28;20270;-78
2022/11/02 07:22:10;;;;;;;16.98;9.10;;;;;;;13.81;71.19;63424.94;5009429;28;20247;-79
2022/11/02 07:24:37;;;;;;;18.60;8.40;;;;;;;13.89;69.23;63428.66;5000098;28;20227;-78
2022/11/02 07:27:04;;;;;;;21.52;8.40;;;;;;;14.04;69.22;63443.72;4987919;28;20220;-78
2022/11/02 07:29:31;;;;;;;14.40;7.38;;;;;;;14.22;68.07;63464.97;4989225;28;20195;-78
2022/11/02 07:31:58;;;;;;;21.52;8.88;;;;;;;14.37;67.28;63483.13;4997063;28;20224;-78
2022/11/02 07:34:26;;;;;;;27.05;9.65;;;;;;;14.47;65.41;63490.94;4990117;28;20211;-79
2022/11/02 07:36:56;;;;;;;17.58;8.73;;;;;;;14.61;65.45;63505.50;4986628;28;20228;-78
2022/11/02 07:39:23;;;;;;;21.95;8.35;;;;;;;14.63;65.01;63505.00;4986912;28;20239;-78
2022/11/02 07:41:50;;;;;;;38.22;9.43;;;;;;;14.58;66.63;63501.84;4988099;28;20563;-77
2022/11/02 07:44:17;;;;;;;23.02;8.32;;;;;;;14.71;66.38;63518.44;4987754;28;20232;-79
2022/11/02 07:46:44;;;;;;;21.42;8.95;;;;;;;14.81;65.83;63531.38;4990675;28;20224;-78
2022/11/02 07:49:11;;;;;;;13.07;6.93;;;;;;;14.91;64.05;63541.25;5006804;28;20340;-78
2022/11/02 07:51:38;;;;;;;22.02;7.43;;;;;;;14.97;64.09;63542.88;5006564;28;20226;-77
2022/11/02 07:54:06;;;;;;;15.98;7.20;;;;;;;14.92;63.13;63537.69;5007110;28;20226;-77
2022/11/02 07:56:34;;;;;;;16.20;7.63;;;;;;;14.90;63.69;63527.91;5005566;28;20223;-78
2022/11/02 07:59:01;;;;;;;16.90;7.00;;;;;;;14.92;63.60;63542.28;4996262;28;20203;-77
2022/11/02 08:01:27;;;;;;;14.63;6.78;;;;;;;15.07;62.89;63550.72;4987295;28;20227;-78
2022/11/02 08:03:55;;;;;;;22.02;6.72;;;;;;;15.11;62.94;63559.47;4990170;28;20231;-79
2022/11/02 08:06:22;;;;;;;13.55;6.57;;;;;;;15.10;62.68;63552.78;5002185;28;20222;-79
2022/11/02 08:08:50;;;;;;;12.32;6.55;;;;;;;15.24;61.25;63575.03;4996259;28;20204;-79
2022/11/02 08:11:19;;;;;;;11.15;6.75;;;;;;;15.32;60.93;63580.78;4989847;28;20211;-78
2022/11/02 08:13:46;;;;;;;18.35;6.70;;;;;;;15.39;60.58;63582.91;4992428;28;20192;-78
2022/11/02 08:16:13;;;;;;;16.05;6.90;;;;;;;15.41;60.14;63590.66;5006985;28;20222;-78
2022/11/02 08:18:41;;;;;;;16.92;7.60;;;;;;;15.59;59.57;63606.28;4990855;28;20199;-78
2022/11/02 08:21:07;;;;;;;12.35;7.72;;;;;;;15.65;60.00;63610.47;4989047;28;20225;-78
2022/11/02 08:23:34;;;;;;;18.13;7.57;;;;;;;15.67;59.86;63615.13;4994460;28;20230;-78
2022/11/02 08:26:01;;;;;;;16.48;7.38;;;;;;;15.84;59.68;63637.94;5003653;28;20233;-78
2022/11/02 08:28:35;;;;;;;12.77;7.43;;;;;;;16.00;57.99;63646.88;5009072;28;20440;-78
2022/11/02 08:31:06;;;;;;;17.55;7.40;;;;;;;16.16;56.92;63663.53;5007878;28;20277;-78
2022/11/02 08:33:33;;;;;;;15.63;7.93;;;;;;;16.23;56.73;63672.31;4991767;28;20203;-80
2022/11/02 08:36:03;;;;;;;10.43;6.70;;;;;;;16.18;56.40;63668.16;4988255;28;20219;-77
2022/11/02 08:38:31;;;;;;;12.10;7.40;;;;;;;16.10;56.65;63659.34;4987874;28;20382;-79
2022/11/02 08:40:58;;;;;;;13.23;6.85;;;;;;;16.29;56.47;63684.22;4995613;28;20233;-78
2022/11/02 08:43:25;;;;;;;23.75;8.30;;;;;;;16.49;56.20;63701.97;5005424;28;20238;-78
2022/11/02 08:45:57;;;;;;;24.13;8.77;;;;;;;16.56;55.57;63709.75;5005653;28;20607;-78
2022/11/02 08:48:28;;;;;;;16.30;7.85;;;;;;;16.66;56.20;63720.16;5010832;28;20199;-79
2022/11/02 08:50:59;;;;;;;20.83;7.10;;;;;;;16.78;55.39;63734.69;5005269;28;20223;-78
2022/11/02 08:53:26;;;;;;;21.23;7.75;;;;;;;16.77;55.02;63729.06;5006953;28;20187;-78
2022/11/02 08:55:53;;;;;;;20.40;7.82;;;;;;;16.86;54.62;63740.47;5010163;28;20286;-78
2022/11/02 08:58:20;;;;;;;22.45;9.35;;;;;;;16.87;54.41;63736.34;5012614;28;20254;-77
2022/11/02 09:00:47;;;;;;;18.77;8.00;;;;;;;16.95;54.45;63752.38;5001605;28;20262;-78
2022/11/02 09:03:16;;;;;;;19.80;8.82;;;;;;;17.05;54.00;63760.75;5008063;28;20230;-78
2022/11/02 09:05:44;;;;;;;17.75;7.60;;;;;;;17.24;53.89;63775.38;5007192;28;20222;-80
2022/11/02 09:08:13;;;;;;;30.02;8.90;;;;;;;17.40;53.18;63801.28;5000543;28;20261;-78
2022/11/02 09:10:40;;;;;;;14.77;7.70;;;;;;;17.73;52.67;63828.47;4988431;28;20384;-78
2022/11/02 09:13:11;;;;;;;21.13;9.05;;;;;;;17.80;51.88;63840.38;4987765;28;20200;-77
2022/11/02 09:15:38;;;;;;;20.27;8.65;;;;;;;17.91;52.14;63849.28;4989429;28;20219;-78
2022/11/02 09:18:05;;;;;;;21.90;9.35;;;;;;;18.00;51.35;63859.16;4990378;28;20208;-77
2022/11/02 09:20:34;;;;;;;26.42;8.93;;;;;;;18.15;51.35;63876.84;4990450;28;20219;-77
2022/11/02 09:23:02;;;;;;;21.65;9.27;;;;;;;18.34;50.96;63896.66;4993649;28;20226;-78
2022/11/02 09:25:29;;;;;;;28.75;10.05;;;;;;;18.56;50.43;63919.06;4991510;28;20219;-79
2022/11/02 09:27:57;;;;;;;18.92;9.40;;;;;;;18.71;50.22;63932.63;4991324;28;20283;-77
2022/11/02 09:30:28;;;;;;;21.05;10.40;;;;;;;18.77;49.38;63938.38;4991395;28;20230;-77
2022/11/02 09:32:55;;;;;;;22.60;9.48;;;;;;;18.83;49.88;63947.72;4990256;28;20199;-76
2022/11/02 09:35:23;;;;;;;16.02;8.57;;;;;;;19.00;49.68;63968.03;4991534;28;20293;-77
2022/11/02 09:37:51;;;;;;;20.38;9.40;;;;;;;19.19;49.07;63982.69;4992473;28;20206;-76
2022/11/02 09:40:21;;;;;;;21.95;9.68;;;;;;;19.33;48.44;63996.78;5007586;28;20218;-77
2022/11/02 09:42:58;;;;;;;22.13;9.18;;;;;;;19.29;48.02;63992.59;5010738;28;20187;-77
2022/11/02 09:45:26;;;;;;;31.40;9.30;;;;;;;19.27;47.70;63987.91;5010496;28;20245;-77
2022/11/02 09:47:57;;;;;;;24.15;8.63;;;;;;;19.30;47.69;63993.66;5003693;28;20204;-78
2022/11/02 09:50:30;;;;;;;23.85;8.60;;;;;;;19.53;47.53;64023.31;4989647;28;20283;-78
2022/11/02 09:53:04;;;;;;;24.23;9.30;;;;;;;19.62;47.26;64021.88;4991443;28;20204;-78
2022/11/02 09:55:35;;;;;;;30.52;9.55;;;;;;;19.80;47.16;64045.28;4990283;28;20223;-78
2022/11/02 09:58:12;;;;;;;20.73;8.98;;;;;;;20.01;46.93;64070.28;5004553;28;20198;-78
2022/11/02 10:00:41;;;;;;;16.25;8.15;;;;;;;20.04;45.96;64073.41;5011058;28;20226;-78
2022/11/02 10:03:20;;;;;;;15.05;8.63;;;;;;;20.11;45.80;64077.63;5010237;28;20253;-79
2022/11/02 10:05:54;;;;;;;18.80;8.90;;;;;;;20.29;45.25;64099.53;5004619;28;20219;-77
2022/11/02 10:08:46;;;;;;;17.25;8.63;;;;;;;20.37;44.76;64107.34;4989915;28;20191;-77
2022/11/02 10:11:30;;;;;;;19.70;9.52;;;;;;;20.54;44.92;64127.69;4989815;28;20220;-77
2022/11/02 10:14:03;;;;;;;21.00;8.88;;;;;;;20.60;44.46;64131.88;4990709;28;20234;-77
2022/11/02 10:16:36;;;;;;;20.05;7.80;;;;;;;20.72;44.13;64141.31;4989921;28;20223;-77
2022/11/02 10:19:05;;;;;;;16.13;8.80;;;;;;;20.74;43.21;64142.88;4987785;28;20242;-77
2022/11/02 10:21:34;;;;;;;25.38;8.98;;;;;;;20.88;43.00;64160.06;4988599;28;20219;-77
2022/11/02 10:24:18;;;;;;;13.43;8.13;;;;;;;20.97;42.47;64169.47;4988004;28;20252;-77
2022/11/02 10:26:45;;;;;;;25.75;8.32;;;;;;;20.94;42.60;64166.84;4988240;28;20231;-78
2022/11/02 10:29:18;;;;;;;23.83;8.60;;;;;;;21.05;42.87;64177.84;4989664;28;20205;-78
2022/11/02 10:31:47;;;;;;;33.13;9.48;;;;;;;21.18;42.32;64186.22;4986761;28;20315;-77
2022/11/02 10:34:22;;;;;;;24.65;8.52;;;;;;;21.31;41.71;64202.91;4989485;28;20253;-77
2022/11/02 10:37:00;;;;;;;16.55;9.38;;;;;;;21.45;41.46;64217.53;5021903;28;20317;-77
2022/11/02 10:39:35;;;;;;;18.45;9.20;;;;;;;21.30;41.06;64201.88;5022920;28;20195;-77
2022/11/02 10:42:29;;;;;;;15.77;8.82;;;;;;;21.31;40.72;64210.69;5017675;28;20217;-77
2022/11/02 10:45:16;;;;;;;17.80;10.07;;;;;;;21.51;40.27;64223.81;5020841;28;20447;-77
2022/11/02 10:47:57;;;;;;;17.45;9.38;;;;;;;21.67;39.96;64243.13;5007204;28;20421;-77
2022/11/02 10:50:42;;;;;;;22.65;10.75;;;;;;;21.83;40.16;64258.81;5014464;28;20430;-77
2022/11/02 10:53:14;;;;;;;22.48;9.43;;;;;;;21.86;40.26;64264.53;5016847;28;20202;-77
2022/11/02 10:55:51;;;;;;;24.63;9.43;;;;;;;22.01;39.63;64275.03;5006375;28;20254;-77
2022/11/02 10:58:21;;;;;;;16.45;10.23;;;;;;;22.03;39.47;64275.06;5005455;28;20237;-77
2022/11/02 11:00:50;;;;;;;18.75;11.10;;;;;;;22.20;39.47;64295.41;5006950;28;20269;-77
2022/11/02 11:03:19;;;;;;;21.08;9.35;;;;;;;22.31;39.50;64306.91;5007772;28;20199;-78
2022/11/02 11:05:59;;;;;;;18.73;10.55;;;;;;;22.50;39.02;64329.34;5007962;28;20223;-78
2022/11/02 11:08:30;;;;;;;22.35;10.82;;;;;;;22.54;38.11;64330.97;4990744;28;20243;-77
2022/11/02 11:11:15;;;;;;;19.10;9.70;;;;;;;22.62;38.65;64341.41;4988937;28;20224;-78
2022/11/02 11:13:44;;;;;;;24.02;9.20;;;;;;;22.82;38.28;64365.44;4988323;28;20554;-78
2022/11/02 11:16:13;;;;;;;19.85;9.10;;;;;;;22.85;37.85;64363.38;4987972;28;20229;-77
2022/11/02 11:18:40;;;;;;;22.42;8.45;;;;;;;22.85;37.54;64362.84;4988358;28;20204;-78
2022/11/02 11:21:08;;;;;;;16.83;8.00;;;;;;;22.80;37.47;64360.22;4987747;28;20253;-77
2022/11/02 11:23:35;;;;;;;25.25;8.25;;;;;;;22.94;37.71;64374.88;4989340;28;20207;-78
2022/11/02 11:26:03;;;;;;;17.42;7.22;;;;;;;22.98;37.75;64373.34;5006344;28;20251;-79
2022/11/02 11:28:39;;;;;;;14.65;8.55;;;;;;;23.03;37.42;64381.69;5028323;28;20198;-76
2022/11/02 11:31:13;;;;;;;17.35;7.60;;;;;;;23.17;36.72;64401.53;4993703;28;20234;-78
2022/11/02 11:33:51;;;;;;;10.07;6.03;;;;;;;23.18;37.06;64397.38;4987362;28;20239;-78
2022/11/02 11:36:24;;;;;;;19.92;6.35;;;;;;;23.24;36.55;64408.84;4988568;28;20219;-78
2022/11/02 11:38:53;;;;;;;12.30;5.85;;;;;;;23.21;35.50;64405.69;4987861;28;20195;-77
2022/11/02 11:41:20;;;;;;;13.77;5.43;;;;;;;23.24;35.80;64406.25;4987022;28;20226;-77
2022/11/02 11:43:51;;;;;;;9.32;4.18;;;;;;;23.15;34.92;64398.91;4988133;28;20263;-78
2022/11/02 11:46:19;;;;;;;10.52;3.80;;;;;;;23.25;33.88;64406.75;4988041;28;20219;-77
2022/11/02 11:48:53;;;;;;;8.75;4.20;;;;;;;23.30;33.20;64407.34;4988570;28;20203;-78
2022/11/02 11:51:34;;;;;;;9.43;3.35;;;;;;;23.42;32.01;64427.16;4988584;28;20215;-77
2022/11/02 11:54:27;;;;;;;11.13;2.60;;;;;;;23.35;31.30;64415.16;4987777;28;20210;-78